Time;durP1;ratioP1;P1;durP2;ratioP2;P2;SDS_P1;SDS_P2;PMS_P1;PMS_P2;Temp;Humidity;BMP_temperature;BMP_pressure;BME280_temperature;BME280_humidity;BME280_pressure;Samples;Min_cycle;Max_cycle;Signal;HPM_P1;HPM_P2
2021/01/09 00:02:22;;;;;;;;;;;;;;;-0.33;100.00;100892.22;5113177;28;20018;-75
2021/01/09 00:04:48;;;;;;;;;;;;;;;-0.32;100.00;100895.72;5113206;28;19931;-75
2021/01/09 00:07:13;;;;;;;;;;;;;;;-0.31;100.00;100890.34;5113062;28;20315;-75
2021/01/09 00:09:39;;;;;;;;;;;;;;;-0.33;100.00;100884.19;5113128;28;19923;-75
2021/01/09 00:12:10;;;;;;;;;;;;;;;-0.33;100.00;100892.22;5112850;28;19924;-75
2021/01/09 00:14:36;;;;;;;;;;;;;;;-0.31;100.00;100894.81;5112757;28;20026;-75
2021/01/09 00:17:02;;;;;;;;;;;;;;;-0.28;100.00;100895.59;5112828;28;19950;-75
2021/01/09 00:19:29;;;;;;;;;;;;;;;-0.31;100.00;100893.00;5113006;28;19968;-76
2021/01/09 00:21:55;;;;;;;;;;;;;;;-0.32;100.00;100895.72;5112769;28;20014;-76
2021/01/09 00:24:20;;;;;;;;;;;;;;;-0.37;100.00;100895.91;5113108;28;20450;-76
2021/01/09 00:26:46;;;;;;;;;;;;;;;-0.37;100.00;100894.09;5112955;28;19924;-76
2021/01/09 00:29:12;;;;;;;;;;;;;;;-0.36;100.00;100897.63;5112873;28;19924;-76
2021/01/09 00:31:38;;;;;;;;;;;;;;;-0.36;100.00;100902.97;5112845;28;19923;-77
2021/01/09 00:34:05;;;;;;;;;;;;;;;-0.35;100.00;100902.03;5112448;28;19927;-76
2021/01/09 00:36:30;;;;;;;;;;;;;;;-0.34;100.00;100899.31;5112771;28;20099;-76
2021/01/09 00:38:56;;;;;;;;;;;;;;;-0.30;100.00;100904.56;5112726;28;20377;-76
2021/01/09 00:41:25;;;;;;;;;;;;;;;-0.26;100.00;100904.41;5111315;28;20377;-76
2021/01/09 00:43:51;;;;;;;;;;;;;;;-0.30;100.00;100908.09;5104054;28;19925;-76
2021/01/09 00:46:17;;;;;;;;;;;;;;;-0.29;100.00;100909.00;5111970;28;19931;-76
2021/01/09 00:48:44;;;;;;;;;;;;;;;-0.27;100.00;100910.66;5110833;28;21274;-76
2021/01/09 00:51:12;;;;;;;;;;;;;;;-0.29;100.00;100904.53;5112426;28;19932;-76
2021/01/09 00:53:38;;;;;;;;;;;;;;;-0.29;100.00;100907.19;5112602;28;20349;-76
2021/01/09 00:56:05;;;;;;;;;;;;;;;-0.30;100.00;100912.56;5112450;28;19923;-76
2021/01/09 00:58:30;;;;;;;;;;;;;;;-0.30;100.00;100913.44;5112647;28;20402;-76
2021/01/09 01:00:56;;;;;;;;;;;;;;;-0.30;100.00;100917.91;5112392;28;19924;-76
2021/01/09 01:03:22;;;;;;;;;;;;;;;-0.30;100.00;100918.78;5112238;28;19947;-75
2021/01/09 01:05:48;;;;;;;;;;;;;;;-0.29;100.00;100917.00;5112064;28;19931;-75
2021/01/09 01:08:14;;;;;;;;;;;;;;;-0.30;100.00;100920.59;5112374;28;19963;-75
2021/01/09 01:10:40;;;;;;;;;;;;;;;-0.29;100.00;100923.19;5112327;28;20016;-76
2021/01/09 01:13:06;;;;;;;;;;;;;;;-0.27;100.00;100928.47;5112075;28;19924;-75
2021/01/09 01:15:32;;;;;;;;;;;;;;;-0.30;100.00;100924.13;5112031;28;20389;-76
2021/01/09 01:17:57;;;;;;;;;;;;;;;-0.28;100.00;100929.38;5111891;28;19974;-75
2021/01/09 01:20:23;;;;;;;;;;;;;;;-0.27;100.00;100931.16;5112123;28;19978;-75
2021/01/09 01:22:49;;;;;;;;;;;;;;;-0.31;100.00;100927.69;5111731;28;19931;-75
2021/01/09 01:25:16;;;;;;;;;;;;;;;-0.32;100.00;100938.41;5111895;28;19947;-75
2021/01/09 01:27:41;;;;;;;;;;;;;;;-0.31;100.00;100941.03;5111873;28;20046;-75
2021/01/09 01:30:08;;;;;;;;;;;;;;;-0.30;100.00;100936.59;5111820;28;20383;-75
2021/01/09 01:32:34;;;;;;;;;;;;;;;-0.30;100.00;100937.44;5111628;28;19971;-75
2021/01/09 01:34:59;;;;;;;;;;;;;;;-0.29;100.00;100935.69;5111912;28;19924;-76
2021/01/09 01:37:25;;;;;;;;;;;;;;;-0.28;100.00;100940.97;5111492;28;19923;-75
2021/01/09 01:39:51;;;;;;;;;;;;;;;-0.29;100.00;100939.19;5111742;28;20328;-75
2021/01/09 01:42:17;;;;;;;;;;;;;;;-0.28;100.00;100930.28;5111647;28;19957;-75
2021/01/09 01:44:43;;;;;;;;;;;;;;;-0.26;100.00;100931.09;5111523;28;19936;-75
2021/01/09 01:47:12;;;;;;;;;;;;;;;-0.25;100.00;100932.84;5111445;28;20011;-75
2021/01/09 01:49:38;;;;;;;;;;;;;;;-0.24;100.00;100933.69;5111723;28;20010;-75
2021/01/09 01:52:05;;;;;;;;;;;;;;;-0.28;100.00;100932.06;5111581;28;19931;-75
2021/01/09 01:54:31;;;;;;;;;;;;;;;-0.28;100.00;100932.94;5111836;28;19989;-75
2021/01/09 01:56:58;;;;;;;;;;;;;;;-0.26;100.00;100939.09;5111457;28;20401;-75
2021/01/09 01:59:25;;;;;;;;;;;;;;;-0.31;100.00;100941.03;5111689;28;20022;-75
2021/01/09 02:01:51;;;;;;;;;;;;;;;-0.31;100.00;100940.19;5111273;28;20460;-76
2021/01/09 02:04:16;;;;;;;;;;;;;;;-0.31;100.00;100935.69;5111606;28;19949;-75
2021/01/09 02:06:43;;;;;;;;;;;;;;;-0.31;100.00;100941.03;5112115;28;20027;-75
2021/01/09 02:09:12;;;;;;;;;;;;;;;-0.29;100.00;100949.88;5112699;28;20022;-76
2021/01/09 02:11:40;;;;;;;;;;;;;;;-0.28;100.00;100945.41;5111402;28;20004;-75
2021/01/09 02:14:10;;;;;;;;;;;;;;;-0.29;100.00;100944.53;5111448;28;19959;-75
2021/01/09 02:16:37;;;;;;;;;;;;;;;-0.27;100.00;100941.81;5111410;28;20395;-76
2021/01/09 02:19:03;;;;;;;;;;;;;;;-0.27;100.00;100953.34;5111420;28;19974;-75
2021/01/09 02:21:33;;;;;;;;;;;;;;;-0.26;100.00;100946.25;5113491;28;19924;-75
2021/01/09 02:24:00;;;;;;;;;;;;;;;-0.27;100.00;100950.69;5115324;28;19963;-75
2021/01/09 02:26:25;;;;;;;;;;;;;;;-0.26;100.00;100954.25;5115005;28;20026;-76
2021/01/09 02:28:51;;;;;;;;;;;;;;;-0.28;100.00;100943.63;5114006;28;20409;-76
2021/01/09 02:31:19;;;;;;;;;;;;;;;-0.27;100.00;100950.69;5114970;28;19931;-75
2021/01/09 02:33:47;;;;;;;;;;;;;;;-0.25;100.00;100954.19;5115223;28;19931;-76
2021/01/09 02:36:13;;;;;;;;;;;;;;;-0.30;100.00;100953.47;5114716;28;20390;-75
2021/01/09 02:38:38;;;;;;;;;;;;;;;-0.28;100.00;100953.41;5114722;28;19935;-75
2021/01/09 02:41:05;;;;;;;;;;;;;;;-0.26;100.00;100960.44;5114966;28;19931;-76
2021/01/09 02:43:31;;;;;;;;;;;;;;;-0.27;100.00;100960.50;5115076;28;20018;-75
2021/01/09 02:45:57;;;;;;;;;;;;;;;-0.28;100.00;100958.75;5114446;28;19930;-76
2021/01/09 02:48:23;;;;;;;;;;;;;;;-0.30;100.00;100961.47;5114823;28;19992;-75
2021/01/09 02:50:49;;;;;;;;;;;;;;;-0.31;100.00;100957.03;5114684;28;19923;-75
2021/01/09 02:53:15;;;;;;;;;;;;;;;-0.32;100.00;100965.09;5114693;28;19935;-75
2021/01/09 02:55:40;;;;;;;;;;;;;;;-0.32;100.00;100965.09;5114228;28;19924;-75
2021/01/09 02:58:07;;;;;;;;;;;;;;;-0.36;100.00;100965.22;5113349;28;19924;-75
2021/01/09 03:00:33;;;;;;;;;;;;;;;-0.32;100.00;100966.00;5114599;28;19959;-75
2021/01/09 03:02:59;;;;;;;;;;;;;;;-0.36;100.00;100958.97;5114598;28;19996;-75
2021/01/09 03:05:24;;;;;;;;;;;;;;;-0.33;100.00;100964.25;5114485;28;19935;-75
2021/01/09 03:07:50;;;;;;;;;;;;;;;-0.37;100.00;100967.94;5114389;28;20454;-75
2021/01/09 03:10:16;;;;;;;;;;;;;;;-0.39;100.00;100959.09;5113074;28;19931;-75
2021/01/09 03:12:42;;;;;;;;;;;;;;;-0.38;100.00;100968.84;5114033;28;19924;-76
2021/01/09 03:15:09;;;;;;;;;;;;;;;-0.32;100.00;100967.75;5114360;28;19942;-76
2021/01/09 03:17:35;;;;;;;;;;;;;;;-0.36;100.00;100969.66;5114068;28;19963;-75
2021/01/09 03:20:00;;;;;;;;;;;;;;;-0.39;100.00;100964.44;5114169;28;19924;-75
2021/01/09 03:22:26;;;;;;;;;;;;;;;-0.40;100.00;100976.00;5114313;28;19935;-75
2021/01/09 03:24:52;;;;;;;;;;;;;;;-0.39;100.00;100972.44;5114229;28;19928;-76
2021/01/09 03:27:18;;;;;;;;;;;;;;;-0.40;100.00;100978.69;5113753;28;19924;-75
2021/01/09 03:29:44;;;;;;;;;;;;;;;-0.37;100.00;100970.59;5113959;28;19924;-75
2021/01/09 03:32:10;;;;;;;;;;;;;;;-0.40;100.00;100982.22;5112639;28;20342;-76
2021/01/09 03:34:36;;;;;;;;;;;;;;;-0.39;100.00;100980.44;5114014;28;19963;-75
2021/01/09 03:37:02;;;;;;;;;;;;;;;-0.39;100.00;100989.31;5113622;28;20415;-75
2021/01/09 03:39:28;;;;;;;;;;;;;;;-0.37;100.00;100998.13;5113854;28;19977;-75
2021/01/09 03:41:53;;;;;;;;;;;;;;;-0.37;100.00;100999.94;5113679;28;19931;-75
2021/01/09 03:44:19;;;;;;;;;;;;;;;-0.35;100.00;101003.41;5113692;28;19923;-76
2021/01/09 03:46:45;;;;;;;;;;;;;;;-0.36;100.00;100991.00;5113674;28;20445;-75
2021/01/09 03:49:11;;;;;;;;;;;;;;;-0.36;100.00;101001.66;5113401;28;19924;-75
2021/01/09 03:51:37;;;;;;;;;;;;;;;-0.31;100.00;100998.88;5113571;28;19970;-74
2021/01/09 03:54:03;;;;;;;;;;;;;;;-0.29;100.00;101005.03;5113543;28;19932;-75
2021/01/09 03:56:29;;;;;;;;;;;;;;;-0.28;100.00;101005.00;5113326;28;19931;-75
2021/01/09 03:58:54;;;;;;;;;;;;;;;-0.33;100.00;101004.25;5113557;28;19923;-75
2021/01/09 04:01:20;;;;;;;;;;;;;;;-0.32;100.00;101002.44;5113396;28;19951;-75
2021/01/09 04:03:46;;;;;;;;;;;;;;;-0.36;100.00;101005.22;5113335;28;19927;-76
2021/01/09 04:06:13;;;;;;;;;;;;;;;-0.37;100.00;100992.81;5113020;28;19923;-75
2021/01/09 04:08:38;;;;;;;;;;;;;;;-0.36;100.00;101001.66;5113118;28;19930;-76
2021/01/09 04:11:04;;;;;;;;;;;;;;;-0.37;100.00;101002.59;5112931;28;19924;-75
2021/01/09 04:13:30;;;;;;;;;;;;;;;-0.38;100.00;101003.53;5113206;28;19938;-75
2021/01/09 04:15:56;;;;;;;;;;;;;;;-0.42;100.00;101005.41;5112826;28;19923;-75
2021/01/09 04:18:21;;;;;;;;;;;;;;;-0.43;100.00;101011.66;5113073;28;19923;-75
2021/01/09 04:20:47;;;;;;;;;;;;;;;-0.43;100.00;101000.13;5112991;28;20393;-76
2021/01/09 04:23:14;;;;;;;;;;;;;;;-0.44;100.00;101003.69;5112795;28;19931;-76
2021/01/09 04:25:39;;;;;;;;;;;;;;;-0.44;100.00;101009.03;5112312;28;19966;-75
2021/01/09 04:28:05;;;;;;;;;;;;;;;-0.41;100.00;101008.97;5112788;28;19924;-76
2021/01/09 04:30:31;;;;;;;;;;;;;;;-0.41;100.00;101009.81;5112828;28;20350;-75
2021/01/09 04:32:57;;;;;;;;;;;;;;;-0.41;100.00;101019.63;5112613;28;19928;-76
2021/01/09 04:35:23;;;;;;;;;;;;;;;-0.41;100.00;101022.31;5112666;28;20474;-75
2021/01/09 04:37:48;;;;;;;;;;;;;;;-0.39;100.00;101032.00;5112499;28;19927;-75
2021/01/09 04:40:15;;;;;;;;;;;;;;;-0.37;100.00;101026.63;5112541;28;20285;-75
2021/01/09 04:42:41;;;;;;;;;;;;;;;-0.34;100.00;101026.50;5112016;28;19931;-75
2021/01/09 04:45:07;;;;;;;;;;;;;;;-0.31;100.00;101029.06;5112108;28;19924;-75
2021/01/09 04:47:34;;;;;;;;;;;;;;;-0.29;100.00;101029.06;5112179;28;20285;-75
2021/01/09 04:50:00;;;;;;;;;;;;;;;-0.29;100.00;101031.72;5112494;28;20431;-75
2021/01/09 04:52:26;;;;;;;;;;;;;;;-0.28;100.00;101037.00;5112271;28;19962;-75
2021/01/09 04:54:54;;;;;;;;;;;;;;;-0.29;100.00;101035.25;5112467;27;20366;-75
2021/01/09 04:57:21;;;;;;;;;;;;;;;-0.30;100.00;101033.50;5117110;28;19930;-76
2021/01/09 04:59:47;;;;;;;;;;;;;;;-0.30;100.00;101037.97;5110818;28;19931;-75
2021/01/09 05:02:13;;;;;;;;;;;;;;;-0.30;100.00;101038.84;5111957;28;19959;-75
2021/01/09 05:04:42;;;;;;;;;;;;;;;-0.28;100.00;101038.78;5111143;28;20446;-75
2021/01/09 05:07:08;;;;;;;;;;;;;;;-0.29;100.00;101037.91;5112082;28;19962;-75
2021/01/09 05:09:34;;;;;;;;;;;;;;;-0.29;100.00;101042.41;5112142;28;19923;-75
2021/01/09 05:12:00;;;;;;;;;;;;;;;-0.30;100.00;101049.50;5112006;28;19969;-75
2021/01/09 05:14:28;;;;;;;;;;;;;;;-0.28;100.00;101046.78;5112069;28;19946;-75
2021/01/09 05:16:55;;;;;;;;;;;;;;;-0.32;100.00;101047.81;5111585;28;19934;-75
2021/01/09 05:19:26;;;;;;;;;;;;;;;-0.35;100.00;101052.34;5111879;28;20023;-75
2021/01/09 05:21:54;;;;;;;;;;;;;;;-0.37;100.00;101051.50;5111916;28;19967;-75
2021/01/09 05:24:21;;;;;;;;;;;;;;;-0.41;100.00;101051.66;5111868;28;20381;-75
2021/01/09 05:26:48;;;;;;;;;;;;;;;-0.41;100.00;101054.31;5111778;28;19994;-75
2021/01/09 05:29:15;;;;;;;;;;;;;;;-0.40;100.00;101059.59;5111837;28;19978;-75
2021/01/09 05:31:41;;;;;;;;;;;;;;;-0.43;100.00;101064.16;5111834;28;20064;-75
2021/01/09 05:34:07;;;;;;;;;;;;;;;-0.45;100.00;101063.34;5111444;28;19965;-75
2021/01/09 05:36:33;;;;;;;;;;;;;;;-0.44;100.00;101073.06;5111534;28;19935;-75
2021/01/09 05:38:59;;;;;;;;;;;;;;;-0.46;100.00;101075.78;5111647;28;20254;-75
2021/01/09 05:41:25;;;;;;;;;;;;;;;-0.48;100.00;101066.97;5111622;28;19955;-75
2021/01/09 05:43:58;;;;;;;;;;;;;;;-0.48;100.00;101074.97;5111582;28;20330;-73
2021/01/09 05:46:24;;;;;;;;;;;;;;;-0.44;100.00;101073.94;5111411;28;20283;-75
2021/01/09 05:48:51;;;;;;;;;;;;;;;-0.42;100.00;101085.44;5104687;28;19993;-75
2021/01/09 05:51:18;;;;;;;;;;;;;;;-0.40;100.00;101069.38;5098537;28;20078;-74
2021/01/09 05:53:44;;;;;;;;;;;;;;;-0.39;100.00;101079.13;5109899;28;19962;-75
2021/01/09 05:56:11;;;;;;;;;;;;;;;-0.39;100.00;101073.78;5113292;28;19966;-74
2021/01/09 05:58:37;;;;;;;;;;;;;;;-0.38;100.00;101079.09;5115477;28;19931;-73
2021/01/09 06:01:04;;;;;;;;;;;;;;;-0.40;100.00;101078.28;5111563;28;19928;-73
2021/01/09 06:03:40;;;;;;;;;;;;;;;-0.40;100.00;101090.72;5115598;28;19931;-73
2021/01/09 06:06:20;;;;;;;;;;;;;;;-0.39;100.00;101087.13;5115402;28;20420;-73
2021/01/09 06:08:49;;;;;;;;;;;;;;;-0.39;100.00;101093.38;5115342;28;20432;-73
2021/01/09 06:11:17;;;;;;;;;;;;;;;-0.39;100.00;101095.13;5115468;28;19928;-73
2021/01/09 06:13:44;;;;;;;;;;;;;;;-0.40;100.00;101096.06;5115625;28;19951;-73
2021/01/09 06:16:10;;;;;;;;;;;;;;;-0.44;100.00;101089.06;5115167;28;19963;-73
2021/01/09 06:18:37;;;;;;;;;;;;;;;-0.44;100.00;101097.06;5107871;28;19960;-73
2021/01/09 06:21:03;;;;;;;;;;;;;;;-0.43;100.00;101104.16;5114831;28;20026;-73
2021/01/09 06:23:30;;;;;;;;;;;;;;;-0.47;100.00;101107.84;5115141;28;20036;-74
2021/01/09 06:25:57;;;;;;;;;;;;;;;-0.50;100.00;101103.47;5114685;28;20361;-74
2021/01/09 06:28:24;;;;;;;;;;;;;;;-0.51;100.00;101105.25;5115269;28;19978;-74
2021/01/09 06:30:53;;;;;;;;;;;;;;;-0.52;100.00;101103.50;5114269;28;20417;-73
2021/01/09 06:33:22;;;;;;;;;;;;;;;-0.51;100.00;101110.59;5111833;28;19962;-74
2021/01/09 06:35:53;;;;;;;;;;;;;;;-0.50;100.00;101116.78;5105913;28;19935;-74
2021/01/09 06:38:19;;;;;;;;;;;;;;;-0.46;100.00;101122.94;5116280;28;19924;-73
2021/01/09 06:40:45;;;;;;;;;;;;;;;-0.48;100.00;101125.66;5095819;28;19947;-74
2021/01/09 06:43:11;;;;;;;;;;;;;;;-0.48;100.00;101125.66;5104899;28;19933;-74
2021/01/09 06:45:41;;;;;;;;;;;;;;;-0.47;100.00;101126.50;5116526;28;19924;-74
2021/01/09 06:48:07;;;;;;;;;;;;;;;-0.47;100.00;101131.84;5114199;28;20379;-73
2021/01/09 06:50:35;;;;;;;;;;;;;;;-0.46;100.00;101133.59;5101582;28;20023;-73
2021/01/09 06:53:01;;;;;;;;;;;;;;;-0.46;100.00;101134.47;5110722;28;19923;-73
2021/01/09 06:55:45;;;;;;;;;;;;;;;-0.45;100.00;101136.22;5107295;28;20274;-74
2021/01/09 06:58:14;;;;;;;;;;;;;;;-0.46;100.00;101134.47;5083837;28;19948;-73
2021/01/09 07:00:40;;;;;;;;;;;;;;;-0.44;100.00;101132.63;5093996;28;19969;-73
2021/01/09 07:03:09;;;;;;;;;;;;;;;-0.42;100.00;101136.13;5094075;28;19928;-74
2021/01/09 07:05:42;;;;;;;;;;;;;;;-0.44;100.00;101137.97;5093624;28;19924;-74
2021/01/09 07:08:08;;;;;;;;;;;;;;;-0.41;100.00;101142.34;5093714;28;19928;-74
2021/01/09 07:10:42;;;;;;;;;;;;;;;-0.38;100.00;101152.91;5094107;28;19973;-74
2021/01/09 07:13:10;;;;;;;;;;;;;;;-0.36;100.00;101145.72;5093779;28;20028;-74
2021/01/09 07:15:37;;;;;;;;;;;;;;;-0.33;100.00;101148.31;5093660;28;19956;-74
2021/01/09 07:18:03;;;;;;;;;;;;;;;-0.35;100.00;101152.81;5093825;28;19930;-74
2021/01/09 07:20:33;;;;;;;;;;;;;;;-0.34;100.00;101155.44;5093919;28;19924;-74
2021/01/09 07:22:59;;;;;;;;;;;;;;;-0.36;100.00;101162.63;5093420;28;19924;-74
2021/01/09 07:25:29;;;;;;;;;;;;;;;-0.36;100.00;101167.06;5092466;28;19924;-74
2021/01/09 07:27:55;;;;;;;;;;;;;;;-0.37;100.00;101166.22;5093613;28;19925;-74
2021/01/09 07:30:22;;;;;;;;;;;;;;;-0.34;100.00;101165.25;5093719;28;20378;-74
2021/01/09 07:32:49;;;;;;;;;;;;;;;-0.30;100.00;101171.38;5093403;28;20289;-74
2021/01/09 07:35:18;;;;;;;;;;;;;;;-0.33;100.00;101167.00;5093537;28;20386;-74
2021/01/09 07:37:44;;;;;;;;;;;;;;;-0.30;100.00;101174.03;5093289;28;19981;-74
2021/01/09 07:40:14;;;;;;;;;;;;;;;-0.30;100.00;101177.56;5093197;28;19928;-74
2021/01/09 07:42:40;;;;;;;;;;;;;;;-0.25;100.00;101175.66;5093412;28;19925;-74
2021/01/09 07:45:07;;;;;;;;;;;;;;;-0.24;100.00;101177.41;5093371;28;19959;-74
2021/01/09 07:47:36;;;;;;;;;;;;;;;-0.24;100.00;101180.09;5093285;28;19971;-74
2021/01/09 07:50:04;;;;;;;;;;;;;;;-0.25;100.00;101180.13;5093403;28;19959;-74
2021/01/09 07:52:32;;;;;;;;;;;;;;;-0.26;100.00;101173.03;5093144;28;20366;-74
2021/01/09 07:54:58;;;;;;;;;;;;;;;-0.31;100.00;101178.50;5093096;28;19959;-74
2021/01/09 07:57:25;;;;;;;;;;;;;;;-0.31;100.00;101180.28;5094656;28;19924;-75
2021/01/09 08:00:07;;;;;;;;;;;;;;;-0.32;100.00;101178.53;5094069;28;19931;-75
2021/01/09 08:02:34;;;;;;;;;;;;;;;-0.33;100.00;101188.34;5093056;28;19928;-74
2021/01/09 08:05:05;;;;;;;;;;;;;;;-0.31;100.00;101185.63;5092940;28;20009;-74
2021/01/09 08:07:31;;;;;;;;;;;;;;;-0.30;100.00;101195.41;5092720;28;20018;-75
2021/01/09 08:09:58;;;;;;;;;;;;;;;-0.24;100.00;101197.88;5092773;28;19931;-74
2021/01/09 08:12:27;;;;;;;;;;;;;;;-0.28;100.00;101207.78;5092736;28;19924;-74
2021/01/09 08:14:53;;;;;;;;;;;;;;;-0.28;100.00;101198.88;5092733;28;19977;-74
2021/01/09 08:17:21;;;;;;;;;;;;;;;-0.26;100.00;101203.25;5093881;28;20358;-74
2021/01/09 08:19:47;;;;;;;;;;;;;;;-0.28;100.00;101207.78;5095831;28;19982;-74
2021/01/09 08:22:14;;;;;;;;;;;;;;;-0.25;100.00;101206.81;5092529;28;20389;-75
2021/01/09 08:24:40;;;;;;;;;;;;;;;-0.18;100.00;101206.56;5107026;28;19958;-75
2021/01/09 08:27:06;;;;;;;;;;;;;;;-0.13;100.00;101219.78;5108384;28;19924;-73
2021/01/09 08:29:32;;;;;;;;;;;;;;;-0.14;100.00;101215.38;5112891;28;19928;-76
2021/01/09 08:31:58;;;;;;;;;;;;;;;-0.15;100.00;101218.09;5100414;28;19930;-76
2021/01/09 08:34:24;;;;;;;;;;;;;;;-0.15;100.00;101216.28;5092305;28;19978;-76
2021/01/09 08:36:52;;;;;;;;;;;;;;;-0.12;100.00;101221.56;5097983;28;20415;-76
2021/01/09 08:39:19;;;;;;;;;;;;;;;-0.10;100.00;101221.50;5112441;28;19928;-75
2021/01/09 08:41:45;;;;;;;;;;;;;;;-0.09;100.00;101220.59;5103713;28;19997;-76
2021/01/09 08:44:12;;;;;;;;;;;;;;;-0.07;100.00;101219.59;5100830;28;20323;-76
2021/01/09 08:46:39;;;;;;;;;;;;;;;-0.07;100.00;101232.94;5105484;28;19931;-75
2021/01/09 08:49:05;;;;;;;;;;;;;;;-0.06;100.00;101223.16;5110678;28;19981;-76
2021/01/09 08:51:32;;;;;;;;;;;;;;;-0.04;100.00;101221.31;5110197;28;19923;-76
2021/01/09 08:53:59;;;;;;;;;;;;;;;-0.03;100.00;101229.28;5112212;28;20430;-75
2021/01/09 08:56:27;;;;;;;;;;;;;;;-0.02;100.00;101230.16;5108294;28;19986;-76
2021/01/09 08:58:53;;;;;;;;;;;;;;;0.03;100.00;101235.34;5095852;28;19931;-76
2021/01/09 09:01:22;;;;;;;;;;;;;;;0.04;100.00;101240.66;5109715;28;19963;-76
2021/01/09 09:03:48;;;;;;;;;;;;;;;0.01;100.00;101240.75;5090868;28;19970;-77
2021/01/09 09:06:14;;;;;;;;;;;;;;;0.02;100.00;101245.16;5091185;28;20467;-77
2021/01/09 09:08:40;;;;;;;;;;;;;;;0.02;100.00;101249.63;5090808;28;19951;-76
2021/01/09 09:11:06;;;;;;;;;;;;;;;0.04;100.00;101247.78;5088726;28;19977;-77
2021/01/09 09:13:33;;;;;;;;;;;;;;;0.08;100.00;101252.13;5089102;28;19955;-76
2021/01/09 09:16:14;;;;;;;;;;;;;;;0.08;100.00;101254.78;5107990;28;19923;-77
2021/01/09 09:18:40;;;;;;;;;;;;;;;0.14;100.00;101250.13;5111729;28;19931;-77
2021/01/09 09:21:08;;;;;;;;;;;;;;;0.16;100.00;101247.41;5109694;28;19951;-76
2021/01/09 09:23:34;;;;;;;;;;;;;;;0.14;100.00;101242.13;5109319;28;19959;-76
2021/01/09 09:26:04;;;;;;;;;;;;;;;0.14;100.00;101244.78;5105769;28;19992;-77
2021/01/09 09:28:30;;;;;;;;;;;;;;;0.13;100.00;101242.19;5111692;28;19955;-77
2021/01/09 09:30:56;;;;;;;;;;;;;;;0.14;100.00;101251.94;5104292;28;20443;-76
2021/01/09 09:33:24;;;;;;;;;;;;;;;0.21;100.00;101245.50;5102743;28;20637;-75
2021/01/09 09:35:50;;;;;;;;;;;;;;;0.25;100.00;101247.16;5111542;28;20296;-76
2021/01/09 09:38:25;;;;;;;;;;;;;;;0.17;100.00;101241.16;5111745;28;19924;-76
2021/01/09 09:40:51;;;;;;;;;;;;;;;0.22;100.00;101249.06;5111823;28;19928;-76
2021/01/09 09:43:17;;;;;;;;;;;;;;;0.26;100.00;101250.72;5111652;28;20388;-75
2021/01/09 09:45:57;;;;;;;;;;;;;;;0.22;100.00;101249.06;5111252;28;19924;-76
2021/01/09 09:48:32;;;;;;;;;;;;;;;0.12;100.00;101246.66;5110494;28;19967;-76
2021/01/09 09:51:02;;;;;;;;;;;;;;;0.10;100.00;101243.13;5109821;28;19967;-76
2021/01/09 09:53:28;;;;;;;;;;;;;;;0.13;100.00;101236.84;5102084;28;19923;-75
2021/01/09 09:56:09;;;;;;;;;;;;;;;0.20;100.00;101232.19;5103209;28;19977;-75
2021/01/09 09:58:34;;;;;;;;;;;;;;;0.22;100.00;101239.25;5089270;28;19935;-75
2021/01/09 10:01:01;;;;;;;;;;;;;;;0.32;100.00;101250.50;5089903;28;19936;-75
2021/01/09 10:03:34;;;;;;;;;;;;;;;0.36;100.00;101248.63;5089348;28;19925;-75
2021/01/09 10:06:00;;;;;;;;;;;;;;;0.35;100.00;101255.78;5087946;28;19932;-75
2021/01/09 10:08:26;;;;;;;;;;;;;;;0.29;100.00;101251.47;5107874;28;19924;-76
2021/01/09 10:10:52;;;;;;;;;;;;;;;0.31;100.00;101251.44;5111433;28;19923;-76
2021/01/09 10:13:24;;;;;;;;;;;;;;;0.39;100.00;101251.19;5111410;28;19946;-75
2021/01/09 10:15:49;;;;;;;;;;;;;;;0.38;100.00;101260.16;5111169;28;19949;-74
2021/01/09 10:18:16;;;;;;;;;;;;;;;0.41;100.00;101260.06;5111539;28;19927;-75
2021/01/09 10:20:42;;;;;;;;;;;;;;;0.41;100.00;101257.38;5107530;28;19924;-75
2021/01/09 10:23:07;;;;;;;;;;;;;;;0.47;100.00;101258.06;5100258;28;20058;-75
2021/01/09 10:25:33;;;;;;;;;;;;;;;0.48;100.00;101256.25;5100106;28;19924;-75
2021/01/09 10:27:59;;;;;;;;;;;;;;;0.49;100.00;101258.00;5101772;28;20369;-75
2021/01/09 10:30:25;;;;;;;;;;;;;;;0.44;100.00;101258.16;5098912;28;20400;-73
2021/01/09 10:32:51;;;;;;;;;;;;;;;0.55;100.00;101259.63;5100030;28;19923;-76
2021/01/09 10:35:17;;;;;;;;;;;;;;;0.60;100.00;101257.69;5109965;28;19928;-76
2021/01/09 10:37:43;;;;;;;;;;;;;;;0.60;100.00;101245.22;5108919;28;20030;-76
2021/01/09 10:40:09;;;;;;;;;;;;;;;0.65;100.00;101248.59;5109666;28;20381;-76
2021/01/09 10:42:35;;;;;;;;;;;;;;;0.70;100.00;101253.81;5112477;28;19980;-76
2021/01/09 10:45:01;;;;;;;;;;;;;;;0.62;100.00;101261.19;5113361;28;19923;-76
2021/01/09 10:47:27;;;;;;;;;;;;;;;0.56;100.00;101274.72;5114775;28;19943;-76
2021/01/09 10:49:53;;;;;;;;;;;;;;;0.53;100.00;101258.81;5114475;28;19924;-76
2021/01/09 10:52:19;;;;;;;;;;;;;;;0.50;100.00;101263.31;5114409;28;19977;-75
2021/01/09 10:54:45;;;;;;;;;;;;;;;0.49;100.00;101277.63;5114736;28;20573;-76
2021/01/09 10:57:11;;;;;;;;;;;;;;;0.47;100.00;101265.22;5114597;28;19928;-76
2021/01/09 10:59:39;;;;;;;;;;;;;;;0.43;100.00;101271.59;5114687;28;20011;-76
2021/01/09 11:02:05;;;;;;;;;;;;;;;0.41;100.00;101266.25;5114243;28;19952;-76
2021/01/09 11:04:31;;;;;;;;;;;;;;;0.53;100.00;101280.19;5114653;28;20273;-75
2021/01/09 11:06:57;;;;;;;;;;;;;;;0.56;100.00;101277.41;5113048;28;19931;-76
2021/01/09 11:09:24;;;;;;;;;;;;;;;0.61;100.00;101284.34;5113330;28;19923;-76
2021/01/09 11:11:50;;;;;;;;;;;;;;;0.62;100.00;101286.09;5095256;28;19931;-76
2021/01/09 11:14:16;;;;;;;;;;;;;;;0.58;100.00;101283.59;5095056;28;19924;-76
2021/01/09 11:16:41;;;;;;;;;;;;;;;0.62;100.00;101271.88;5109393;28;19923;-77
2021/01/09 11:19:09;;;;;;;;;;;;;;;0.57;100.00;101277.34;5114060;28;19928;-77
2021/01/09 11:21:36;;;;;;;;;;;;;;;0.63;100.00;101282.53;5093931;28;20409;-77
2021/01/09 11:24:02;;;;;;;;;;;;;;;0.64;100.00;101278.03;5093724;28;19967;-76
2021/01/09 11:26:29;;;;;;;;;;;;;;;0.62;100.00;101278.09;5112235;28;19924;-76
2021/01/09 11:28:55;;;;;;;;;;;;;;;0.66;100.00;101281.56;5113915;28;19959;-76
2021/01/09 11:31:21;;;;;;;;;;;;;;;0.71;100.00;101276.94;5096407;28;19924;-76
2021/01/09 11:33:48;;;;;;;;;;;;;;;0.77;100.00;101279.41;5093578;28;20024;-77
2021/01/09 11:36:14;;;;;;;;;;;;;;;0.81;100.00;101273.03;5094052;28;19928;-76
2021/01/09 11:38:39;;;;;;;;;;;;;;;0.87;100.00;101277.34;5112580;28;19977;-76
2021/01/09 11:41:06;;;;;;;;;;;;;;;0.82;100.00;101272.13;5100680;27;19928;-76
2021/01/09 11:43:33;;;;;;;;;;;;;;;0.80;100.00;101267.75;5107491;28;19924;-76
2021/01/09 11:45:59;;;;;;;;;;;;;;;0.83;100.00;101273.88;5112077;28;19932;-76
2021/01/09 11:48:27;;;;;;;;;;;;;;;0.81;100.00;101273.03;5102954;28;20082;-76
2021/01/09 11:50:53;;;;;;;;;;;;;;;0.80;100.00;101276.66;5107639;28;19924;-76
2021/01/09 11:53:19;;;;;;;;;;;;;;;0.74;100.00;101279.50;5108624;28;19938;-76
2021/01/09 11:55:45;;;;;;;;;;;;;;;0.75;100.00;101280.38;5092946;28;19967;-76
2021/01/09 11:58:11;;;;;;;;;;;;;;;0.85;100.00;101276.50;5095935;28;19932;-76
2021/01/09 12:00:37;;;;;;;;;;;;;;;0.90;100.00;101277.22;5101852;28;19931;-76
2021/01/09 12:03:04;;;;;;;;;;;;;;;0.96;100.00;101273.47;5113168;28;20358;-77
2021/01/09 12:05:29;;;;;;;;;;;;;;;0.94;100.00;101275.34;5098217;28;19950;-77
2021/01/09 12:07:55;;;;;;;;;;;;;;;0.98;100.00;101276.97;5092562;28;19971;-76
2021/01/09 12:10:21;;;;;;;;;;;;;;;0.95;100.00;101277.06;5092773;28;19928;-77
2021/01/09 12:12:47;;;;;;;;;;;;;;;0.98;100.00;101276.97;5092745;28;19971;-76
2021/01/09 12:15:13;;;;;;;;;;;;;;;1.03;100.00;101280.38;5103949;28;19935;-76
2021/01/09 12:17:39;;;;;;;;;;;;;;;1.02;100.00;101277.72;5112904;28;20369;-76
2021/01/09 12:20:06;;;;;;;;;;;;;;;0.98;100.00;101280.53;5097553;28;19931;-77
2021/01/09 12:22:31;;;;;;;;;;;;;;;1.00;100.00;101286.72;5107949;28;19924;-76
2021/01/09 12:24:57;;;;;;;;;;;;;;;1.00;100.00;101283.13;5112606;28;19928;-76
2021/01/09 12:27:23;;;;;;;;;;;;;;;1.00;100.00;101285.81;5092714;28;20425;-76
2021/01/09 12:29:49;;;;;;;;;;;;;;;0.92;100.00;101288.75;5092466;28;20010;-76